Monday, October 15, 2018, 4:32 AM EDT
Back to Local

KCON, Concord, Concord Municipal Airport

Location: Concord, NH, United States Lat: 43.195
Local Time: 4:32 AM EDT ( 8:32 GMT) Lon: -71.501
Time Zone: US/Eastern Elev: 344 ft

Show me the last for .
Show Decoded

2018-10-15 03:51 METAR KCON 150751Z AUTO 00000KT 10SM CLR M01/M01 A3019 RMK AO2 SLP224 T10061011
                 $ =
2018-10-15 03:06 METAR KCON 150706Z AUTO 00000KT 10SM SCT002 01/M01 A3019 RMK AO2 T00061011 $ =
2018-10-15 02:51 METAR KCON 150651Z AUTO 00000KT 3SM BR BKN002 00/M01 A3019 RMK AO2 SLP227
                 T00001011 $ =
2018-10-15 02:49 METAR KCON 150649Z AUTO 00000KT 1 1/2SM BR OVC002 00/M01 A3019 RMK AO2 VIS 1/2V5
                 $ =
2018-10-15 02:44 METAR KCON 150644Z AUTO 00000KT 1/2SM FG VV001 00/M01 A3019 RMK AO2 T00001011 $
                 =
2018-10-15 02:36 METAR KCON 150636Z AUTO 00000KT 1 1/4SM BR BKN002 00/M01 A3020 RMK AO2 VIS 1/4V5
                 T00001011 $ =
2018-10-15 02:30 METAR KCON 150630Z AUTO 00000KT 8SM BKN001 00/M01 A3020 RMK AO2 T00001011 $ =
2018-10-15 02:17 METAR KCON 150617Z AUTO 00000KT 10SM FEW001 01/M01 A3021 RMK AO2 T00061006 $ =
2018-10-15 01:51 METAR KCON 150551Z AUTO 00000KT 10SM CLR 02/01 A3020 RMK AO2 SLP228 I1000 I6000
                 T00170006 10056 20006 58002 $ =
2018-10-15 00:51 METAR KCON 150451Z AUTO 00000KT 10SM CLR 01/00 A3021 RMK AO2 SLP231 T00110000
                 401441022 $ =
2018-10-14 23:51 METAR KCON 150351Z AUTO 00000KT 10SM CLR 01/01 A3021 RMK AO2 SLP231 T00110006 $
                 =
2018-10-14 22:51 METAR KCON 150251Z AUTO 00000KT 10SM CLR 02/01 A3020 RMK AO2 SLP230 T00170011
                 53009 $ =
2018-10-14 21:51 METAR KCON 150151Z AUTO 00000KT 10SM CLR 03/02 A3019 RMK AO2 SLP227 T00280022 $
                 =
2018-10-14 20:51 METAR KCON 150051Z AUTO 00000KT 10SM CLR 04/03 A3018 RMK AO2 SLP224 T00390028 $
                 =
2018-10-14 19:51 METAR KCON 142351Z AUTO 00000KT 10SM CLR 06/04 A3017 RMK AO2 SLP222 T00560039
                 10144 20050 51007 $ =
2018-10-14 18:51 METAR KCON 142251Z AUTO 00000KT 10SM CLR 07/04 A3017 RMK AO2 SLP220 T00720039 $
                 =
2018-10-14 17:51 METAR KCON 142151Z AUTO 00000KT 10SM CLR 12/02 A3016 RMK AO2 SLP216 T01170022 =
2018-10-14 16:51 METAR KCON 142051Z AUTO 26005KT 10SM CLR 14/02 A3015 RMK AO2 SLP213 T01390017
                 50002 =
2018-10-14 15:51 METAR KCON 141951Z AUTO 21009KT 10SM CLR 14/01 A3015 RMK AO2 SLP213 T01390011 =
2018-10-14 14:51 METAR KCON 141851Z AUTO 26004KT 10SM CLR 13/01 A3015 RMK AO2 SLP211 T01330006 =
2018-10-14 13:51 METAR KCON 141751Z AUTO 25008KT 10SM CLR 13/01 A3015 RMK AO2 SLP211 T01330006
                 10139 20006 58009 =
2018-10-14 12:51 METAR KCON 141651Z AUTO 31007KT 10SM CLR 13/01 A3016 RMK AO2 SLP216 T01280006 =
2018-10-14 11:51 METAR KCON 141551Z AUTO 31008KT 10SM CLR 12/01 A3017 RMK AO2 SLP218 T01170011 =
2018-10-14 10:51 METAR KCON 141451Z AUTO 31008KT 10SM CLR 11/02 A3017 RMK AO2 SLP219 T01060017
                 50004 =
2018-10-14 09:51 METAR KCON 141351Z AUTO 00000KT 10SM CLR 07/04 A3018 RMK AO2 SLP222 T00720044 =
2018-10-14 08:51 METAR KCON 141251Z AUTO 00000KT 10SM CLR 04/03 A3017 RMK AO2 SLP218 T00440033 =
2018-10-14 07:51 METAR KCON 141151Z AUTO 00000KT 10SM CLR 01/01 A3016 RMK AO2 SLP217 70006 I6001
                 T00060006 10006 21022 53022 =
2018-10-14 06:51 METAR KCON 141051Z AUTO 00000KT 10SM CLR M02/M03 A3013 RMK AO2 SLP207 I1000
                 T10171028 =
2018-10-14 06:21 METAR KCON 141021Z AUTO 00000KT 10SM CLR M01/M02 A3013 RMK AO2 I1000 T10111022 =
2018-10-14 06:14 METAR KCON 141014Z AUTO 00000KT 2SM BR CLR M02/M03 A3013 RMK AO2 T10171028 =
2018-10-14 06:11 METAR KCON 141011Z AUTO 00000KT 1 1/4SM BR CLR M02/M03 A3013 RMK AO2 T10171028 =
2018-10-14 06:03 METAR KCON 141003Z AUTO 00000KT 1 3/4SM BR CLR M02/M03 A3012 RMK AO2 T10171028 =
2018-10-14 05:51 METAR KCON 140951Z AUTO 00000KT 10SM CLR M01/M03 A3012 RMK AO2 SLP202 I1000
                 T10111028 =
2018-10-14 04:51 METAR KCON 140851Z AUTO 00000KT 10SM CLR M01/M02 A3010 RMK AO2 SLP194 I1000
                 I3001 T10061017 51015 =

Support USWX by starting your Amazon purchase here.